sensor_id;sensor_type;location;lat;lon;timestamp;P1;durP1;ratioP1;P2;durP2;ratioP2
17650;SDS011;26663;59.302;18.082;2023-08-01T00:01:03;3.03;;;2.50;;
17650;SDS011;26663;59.302;18.082;2023-08-01T00:04:09;3.28;;;2.65;;
17650;SDS011;26663;59.302;18.082;2023-08-01T00:07:12;3.08;;;2.88;;
17650;SDS011;26663;59.302;18.082;2023-08-01T00:10:16;4.28;;;2.72;;
17650;SDS011;26663;59.302;18.082;2023-08-01T00:13:20;2.83;;;2.55;;
17650;SDS011;26663;59.302;18.082;2023-08-01T00:16:24;3.83;;;2.80;;
17650;SDS011;26663;59.302;18.082;2023-08-01T00:19:30;3.42;;;3.10;;
17650;SDS011;26663;59.302;18.082;2023-08-01T00:22:34;3.22;;;2.72;;
17650;SDS011;26663;59.302;18.082;2023-08-01T00:25:37;4.38;;;2.72;;
17650;SDS011;26663;59.302;18.082;2023-08-01T00:28:41;5.82;;;2.53;;
17650;SDS011;26663;59.302;18.082;2023-08-01T00:31:45;5.43;;;3.00;;
17650;SDS011;26663;59.302;18.082;2023-08-01T00:34:51;4.97;;;3.88;;
17650;SDS011;26663;59.302;18.082;2023-08-01T00:37:55;7.47;;;3.28;;
17650;SDS011;26663;59.302;18.082;2023-08-01T00:40:58;4.18;;;2.55;;
17650;SDS011;26663;59.302;18.082;2023-08-01T00:44:02;5.97;;;2.60;;
17650;SDS011;26663;59.302;18.082;2023-08-01T00:47:06;3.13;;;2.67;;
17650;SDS011;26663;59.302;18.082;2023-08-01T00:50:12;7.60;;;2.90;;
17650;SDS011;26663;59.302;18.082;2023-08-01T00:53:16;3.22;;;2.88;;
17650;SDS011;26663;59.302;18.082;2023-08-01T00:56:20;4.45;;;3.10;;
17650;SDS011;26663;59.302;18.082;2023-08-01T00:59:24;3.30;;;3.10;;
17650;SDS011;26663;59.302;18.082;2023-08-01T01:02:28;4.63;;;2.65;;
17650;SDS011;26663;59.302;18.082;2023-08-01T01:05:35;4.57;;;2.40;;
17650;SDS011;26663;59.302;18.082;2023-08-01T01:08:40;2.47;;;2.30;;
17650;SDS011;26663;59.302;18.082;2023-08-01T01:11:44;2.55;;;2.40;;
17650;SDS011;26663;59.302;18.082;2023-08-01T01:14:48;3.13;;;2.40;;
17650;SDS011;26663;59.302;18.082;2023-08-01T01:17:52;3.55;;;2.45;;
17650;SDS011;26663;59.302;18.082;2023-08-01T01:20:57;5.22;;;2.38;;
17650;SDS011;26663;59.302;18.082;2023-08-01T01:24:01;4.07;;;2.30;;
17650;SDS011;26663;59.302;18.082;2023-08-01T01:27:06;4.15;;;2.60;;
17650;SDS011;26663;59.302;18.082;2023-08-01T01:30:11;2.20;;;2.00;;
17650;SDS011;26663;59.302;18.082;2023-08-01T01:33:15;2.72;;;2.10;;
17650;SDS011;26663;59.302;18.082;2023-08-01T01:36:20;3.92;;;2.08;;
17650;SDS011;26663;59.302;18.082;2023-08-01T01:39:24;2.47;;;2.22;;
17650;SDS011;26663;59.302;18.082;2023-08-01T01:42:28;5.55;;;2.92;;
17650;SDS011;26663;59.302;18.082;2023-08-01T01:45:32;2.58;;;2.33;;
17650;SDS011;26663;59.302;18.082;2023-08-01T01:48:37;1.92;;;1.83;;
17650;SDS011;26663;59.302;18.082;2023-08-01T01:51:42;3.70;;;2.00;;
17650;SDS011;26663;59.302;18.082;2023-08-01T01:54:46;3.90;;;2.35;;
17650;SDS011;26663;59.302;18.082;2023-08-01T01:57:50;2.10;;;1.90;;
17650;SDS011;26663;59.302;18.082;2023-08-01T02:00:54;2.00;;;1.90;;
17650;SDS011;26663;59.302;18.082;2023-08-01T02:03:58;2.13;;;1.90;;
17650;SDS011;26663;59.302;18.082;2023-08-01T02:07:03;3.40;;;2.03;;
17650;SDS011;26663;59.302;18.082;2023-08-01T02:10:08;1.80;;;1.70;;
17650;SDS011;26663;59.302;18.082;2023-08-01T02:13:12;2.22;;;1.90;;
17650;SDS011;26663;59.302;18.082;2023-08-01T02:16:16;3.47;;;2.20;;
17650;SDS011;26663;59.302;18.082;2023-08-01T02:19:20;2.15;;;1.90;;
17650;SDS011;26663;59.302;18.082;2023-08-01T02:22:26;2.00;;;1.80;;
17650;SDS011;26663;59.302;18.082;2023-08-01T02:25:30;1.85;;;1.73;;
17650;SDS011;26663;59.302;18.082;2023-08-01T02:28:34;2.08;;;1.83;;
17650;SDS011;26663;59.302;18.082;2023-08-01T02:31:37;2.88;;;1.70;;
17650;SDS011;26663;59.302;18.082;2023-08-01T02:34:43;2.03;;;1.90;;
17650;SDS011;26663;59.302;18.082;2023-08-01T02:37:48;2.42;;;2.10;;
17650;SDS011;26663;59.302;18.082;2023-08-01T02:40:52;1.85;;;1.75;;
17650;SDS011;26663;59.302;18.082;2023-08-01T02:43:56;3.35;;;1.90;;
17650;SDS011;26663;59.302;18.082;2023-08-01T02:47:00;2.25;;;2.10;;
17650;SDS011;26663;59.302;18.082;2023-08-01T02:50:04;2.83;;;1.80;;
17650;SDS011;26663;59.302;18.082;2023-08-01T02:53:10;2.25;;;2.05;;
17650;SDS011;26663;59.302;18.082;2023-08-01T02:56:14;2.08;;;1.90;;
17650;SDS011;26663;59.302;18.082;2023-08-01T02:59:18;2.67;;;2.25;;
17650;SDS011;26663;59.302;18.082;2023-08-01T03:02:21;2.45;;;2.35;;
17650;SDS011;26663;59.302;18.082;2023-08-01T03:05:28;3.75;;;2.03;;
17650;SDS011;26663;59.302;18.082;2023-08-01T03:08:33;3.03;;;2.10;;
17650;SDS011;26663;59.302;18.082;2023-08-01T03:11:37;3.63;;;2.10;;
17650;SDS011;26663;59.302;18.082;2023-08-01T03:14:41;3.20;;;2.05;;
17650;SDS011;26663;59.302;18.082;2023-08-01T03:17:46;2.60;;;2.10;;
17650;SDS011;26663;59.302;18.082;2023-08-01T03:20:49;2.42;;;2.20;;
17650;SDS011;26663;59.302;18.082;2023-08-01T03:23:55;2.47;;;2.10;;
17650;SDS011;26663;59.302;18.082;2023-08-01T03:26:59;3.53;;;2.28;;
17650;SDS011;26663;59.302;18.082;2023-08-01T03:30:03;2.10;;;2.00;;
17650;SDS011;26663;59.302;18.082;2023-08-01T03:33:11;5.05;;;2.40;;
17650;SDS011;26663;59.302;18.082;2023-08-01T03:36:15;2.53;;;2.33;;
17650;SDS011;26663;59.302;18.082;2023-08-01T03:39:21;2.95;;;2.60;;
17650;SDS011;26663;59.302;18.082;2023-08-01T03:42:25;3.25;;;2.22;;
17650;SDS011;26663;59.302;18.082;2023-08-01T03:45:29;3.40;;;2.30;;
17650;SDS011;26663;59.302;18.082;2023-08-01T03:48:32;4.22;;;2.33;;
17650;SDS011;26663;59.302;18.082;2023-08-01T03:51:36;4.25;;;2.90;;
17650;SDS011;26663;59.302;18.082;2023-08-01T03:54:42;2.40;;;2.30;;
17650;SDS011;26663;59.302;18.082;2023-08-01T03:57:45;2.67;;;2.47;;
17650;SDS011;26663;59.302;18.082;2023-08-01T04:00:49;3.40;;;2.20;;
17650;SDS011;26663;59.302;18.082;2023-08-01T04:03:54;3.45;;;2.55;;
17650;SDS011;26663;59.302;18.082;2023-08-01T04:06:58;4.45;;;2.80;;
17650;SDS011;26663;59.302;18.082;2023-08-01T04:10:03;3.85;;;2.75;;
17650;SDS011;26663;59.302;18.082;2023-08-01T04:13:08;2.97;;;2.70;;
17650;SDS011;26663;59.302;18.082;2023-08-01T04:16:12;2.75;;;2.53;;
17650;SDS011;26663;59.302;18.082;2023-08-01T04:19:16;3.50;;;2.50;;
17650;SDS011;26663;59.302;18.082;2023-08-01T04:22:20;3.45;;;2.78;;
17650;SDS011;26663;59.302;18.082;2023-08-01T04:25:25;3.13;;;2.60;;
17650;SDS011;26663;59.302;18.082;2023-08-01T04:28:29;3.97;;;2.65;;
17650;SDS011;26663;59.302;18.082;2023-08-01T04:31:33;4.25;;;2.95;;
17650;SDS011;26663;59.302;18.082;2023-08-01T04:34:37;6.35;;;2.90;;
17650;SDS011;26663;59.302;18.082;2023-08-01T04:37:41;3.65;;;2.70;;
17650;SDS011;26663;59.302;18.082;2023-08-01T04:40:46;5.55;;;2.90;;
17650;SDS011;26663;59.302;18.082;2023-08-01T04:43:50;4.53;;;2.47;;
17650;SDS011;26663;59.302;18.082;2023-08-01T04:46:54;2.90;;;2.58;;
17650;SDS011;26663;59.302;18.082;2023-08-01T04:49:57;4.97;;;2.60;;
17650;SDS011;26663;59.302;18.082;2023-08-01T04:53:01;2.55;;;2.45;;
17650;SDS011;26663;59.302;18.082;2023-08-01T04:56:07;6.10;;;2.88;;
17650;SDS011;26663;59.302;18.082;2023-08-01T04:59:11;2.55;;;2.40;;
17650;SDS011;26663;59.302;18.082;2023-08-01T05:02:15;3.85;;;2.72;;
17650;SDS011;26663;59.302;18.082;2023-08-01T05:05:18;5.07;;;2.72;;
17650;SDS011;26663;59.302;18.082;2023-08-01T05:08:22;4.07;;;2.60;;
17650;SDS011;26663;59.302;18.082;2023-08-01T05:11:27;3.67;;;2.50;;
17650;SDS011;26663;59.302;18.082;2023-08-01T05:14:31;5.20;;;2.50;;
17650;SDS011;26663;59.302;18.082;2023-08-01T05:17:35;2.55;;;2.40;;
17650;SDS011;26663;59.302;18.082;2023-08-01T05:20:39;4.50;;;2.75;;
17650;SDS011;26663;59.302;18.082;2023-08-01T05:23:43;5.00;;;2.72;;
17650;SDS011;26663;59.302;18.082;2023-08-01T05:26:48;3.88;;;2.80;;
17650;SDS011;26663;59.302;18.082;2023-08-01T05:29:52;4.00;;;2.70;;
17650;SDS011;26663;59.302;18.082;2023-08-01T05:32:56;3.90;;;2.50;;
17650;SDS011;26663;59.302;18.082;2023-08-01T05:36:00;2.83;;;2.40;;
17650;SDS011;26663;59.302;18.082;2023-08-01T05:39:05;4.95;;;2.70;;
17650;SDS011;26663;59.302;18.082;2023-08-01T05:42:10;3.13;;;2.45;;
17650;SDS011;26663;59.302;18.082;2023-08-01T05:45:14;2.83;;;2.58;;
17650;SDS011;26663;59.302;18.082;2023-08-01T05:48:18;7.18;;;2.38;;
17650;SDS011;26663;59.302;18.082;2023-08-01T05:51:22;4.93;;;2.45;;
17650;SDS011;26663;59.302;18.082;2023-08-01T05:54:26;3.92;;;2.38;;
17650;SDS011;26663;59.302;18.082;2023-08-01T05:57:31;7.50;;;2.50;;
17650;SDS011;26663;59.302;18.082;2023-08-01T06:00:35;2.80;;;2.33;;
17650;SDS011;26663;59.302;18.082;2023-08-01T06:03:39;3.53;;;2.45;;
17650;SDS011;26663;59.302;18.082;2023-08-01T06:06:43;3.35;;;2.65;;
17650;SDS011;26663;59.302;18.082;2023-08-01T06:09:47;2.72;;;2.53;;
17650;SDS011;26663;59.302;18.082;2023-08-01T06:12:52;2.85;;;2.50;;
17650;SDS011;26663;59.302;18.082;2023-08-01T06:15:56;4.78;;;2.47;;
17650;SDS011;26663;59.302;18.082;2023-08-01T06:19:00;5.05;;;2.60;;
17650;SDS011;26663;59.302;18.082;2023-08-01T06:22:04;3.70;;;2.80;;
17650;SDS011;26663;59.302;18.082;2023-08-01T06:25:08;2.95;;;2.33;;
17650;SDS011;26663;59.302;18.082;2023-08-01T06:28:14;2.78;;;2.58;;
17650;SDS011;26663;59.302;18.082;2023-08-01T06:31:18;2.50;;;2.30;;
17650;SDS011;26663;59.302;18.082;2023-08-01T06:34:22;5.55;;;2.50;;
17650;SDS011;26663;59.302;18.082;2023-08-01T06:37:27;2.67;;;2.15;;
17650;SDS011;26663;59.302;18.082;2023-08-01T06:40:31;5.22;;;2.53;;
17650;SDS011;26663;59.302;18.082;2023-08-01T06:43:36;3.50;;;3.10;;
17650;SDS011;26663;59.302;18.082;2023-08-01T06:46:40;2.20;;;2.10;;
17650;SDS011;26663;59.302;18.082;2023-08-01T06:49:45;2.80;;;2.25;;
17650;SDS011;26663;59.302;18.082;2023-08-01T06:52:48;2.45;;;2.30;;
17650;SDS011;26663;59.302;18.082;2023-08-01T06:55:52;2.40;;;2.28;;
17650;SDS011;26663;59.302;18.082;2023-08-01T06:58:57;3.47;;;2.55;;
17650;SDS011;26663;59.302;18.082;2023-08-01T07:02:01;2.72;;;2.10;;
17650;SDS011;26663;59.302;18.082;2023-08-01T07:05:05;4.68;;;2.50;;
17650;SDS011;26663;59.302;18.082;2023-08-01T07:08:10;4.78;;;2.42;;
17650;SDS011;26663;59.302;18.082;2023-08-01T07:11:14;5.63;;;2.25;;
17650;SDS011;26663;59.302;18.082;2023-08-01T07:14:20;2.67;;;2.10;;
17650;SDS011;26663;59.302;18.082;2023-08-01T07:17:23;3.70;;;2.47;;
17650;SDS011;26663;59.302;18.082;2023-08-01T07:20:27;3.17;;;2.33;;
17650;SDS011;26663;59.302;18.082;2023-08-01T07:23:33;2.47;;;2.30;;
17650;SDS011;26663;59.302;18.082;2023-08-01T07:26:37;5.10;;;2.38;;
17650;SDS011;26663;59.302;18.082;2023-08-01T07:29:42;2.95;;;2.15;;
17650;SDS011;26663;59.302;18.082;2023-08-01T07:32:46;4.05;;;2.40;;
17650;SDS011;26663;59.302;18.082;2023-08-01T07:35:50;3.15;;;2.30;;
17650;SDS011;26663;59.302;18.082;2023-08-01T07:38:54;4.55;;;2.13;;
17650;SDS011;26663;59.302;18.082;2023-08-01T07:41:58;6.18;;;2.25;;
17650;SDS011;26663;59.302;18.082;2023-08-01T07:45:04;4.68;;;2.35;;
17650;SDS011;26663;59.302;18.082;2023-08-01T07:48:09;4.93;;;2.53;;
17650;SDS011;26663;59.302;18.082;2023-08-01T07:51:13;2.40;;;2.20;;
17650;SDS011;26663;59.302;18.082;2023-08-01T07:54:17;1.85;;;1.83;;
17650;SDS011;26663;59.302;18.082;2023-08-01T07:57:21;6.07;;;2.50;;
17650;SDS011;26663;59.302;18.082;2023-08-01T08:00:26;2.78;;;2.17;;
17650;SDS011;26663;59.302;18.082;2023-08-01T08:03:30;2.40;;;2.30;;
17650;SDS011;26663;59.302;18.082;2023-08-01T08:06:34;2.40;;;2.20;;
17650;SDS011;26663;59.302;18.082;2023-08-01T08:09:38;3.80;;;2.20;;
17650;SDS011;26663;59.302;18.082;2023-08-01T08:12:42;3.65;;;2.33;;
17650;SDS011;26663;59.302;18.082;2023-08-01T08:15:47;2.60;;;2.45;;
17650;SDS011;26663;59.302;18.082;2023-08-01T08:18:51;4.05;;;2.45;;
17650;SDS011;26663;59.302;18.082;2023-08-01T08:21:54;4.03;;;2.60;;
17650;SDS011;26663;59.302;18.082;2023-08-01T08:24:58;2.78;;;2.40;;
17650;SDS011;26663;59.302;18.082;2023-08-01T08:28:02;2.50;;;2.40;;
17650;SDS011;26663;59.302;18.082;2023-08-01T08:31:08;2.38;;;2.22;;
17650;SDS011;26663;59.302;18.082;2023-08-01T08:34:12;2.95;;;2.75;;
17650;SDS011;26663;59.302;18.082;2023-08-01T08:37:16;3.45;;;2.80;;
17650;SDS011;26663;59.302;18.082;2023-08-01T08:40:20;2.97;;;2.70;;
17650;SDS011;26663;59.302;18.082;2023-08-01T08:43:23;3.78;;;2.50;;
17650;SDS011;26663;59.302;18.082;2023-08-01T08:46:31;2.75;;;2.55;;
17650;SDS011;26663;59.302;18.082;2023-08-01T08:49:37;5.57;;;2.20;;
17650;SDS011;26663;59.302;18.082;2023-08-01T08:52:42;2.78;;;1.90;;
17650;SDS011;26663;59.302;18.082;2023-08-01T08:55:46;2.15;;;2.15;;
17650;SDS011;26663;59.302;18.082;2023-08-01T08:58:50;2.17;;;1.80;;
17650;SDS011;26663;59.302;18.082;2023-08-01T09:01:56;1.95;;;1.85;;
17650;SDS011;26663;59.302;18.082;2023-08-01T09:04:59;2.00;;;1.90;;
17650;SDS011;26663;59.302;18.082;2023-08-01T09:08:04;2.13;;;1.88;;
17650;SDS011;26663;59.302;18.082;2023-08-01T09:11:12;2.92;;;1.70;;
17650;SDS011;26663;59.302;18.082;2023-08-01T09:14:16;2.92;;;1.80;;
17650;SDS011;26663;59.302;18.082;2023-08-01T09:17:22;1.90;;;1.90;;
17650;SDS011;26663;59.302;18.082;2023-08-01T09:20:26;1.70;;;1.70;;
17650;SDS011;26663;59.302;18.082;2023-08-01T09:23:31;2.70;;;1.70;;
17650;SDS011;26663;59.302;18.082;2023-08-01T09:26:35;1.77;;;1.67;;
17650;SDS011;26663;59.302;18.082;2023-08-01T09:29:39;1.50;;;1.40;;
17650;SDS011;26663;59.302;18.082;2023-08-01T09:32:52;1.95;;;1.60;;
17650;SDS011;26663;59.302;18.082;2023-08-01T09:35:56;1.60;;;1.60;;
17650;SDS011;26663;59.302;18.082;2023-08-01T09:39:00;1.65;;;1.55;;
17650;SDS011;26663;59.302;18.082;2023-08-01T09:42:05;1.58;;;1.48;;
17650;SDS011;26663;59.302;18.082;2023-08-01T09:45:12;2.15;;;1.80;;
17650;SDS011;26663;59.302;18.082;2023-08-01T09:48:25;2.25;;;1.60;;
17650;SDS011;26663;59.302;18.082;2023-08-01T09:51:29;1.63;;;1.63;;
17650;SDS011;26663;59.302;18.082;2023-08-01T09:54:33;6.72;;;1.70;;
17650;SDS011;26663;59.302;18.082;2023-08-01T09:57:37;1.60;;;1.60;;
17650;SDS011;26663;59.302;18.082;2023-08-01T10:00:41;1.58;;;1.33;;
17650;SDS011;26663;59.302;18.082;2023-08-01T10:03:48;1.52;;;1.52;;
17650;SDS011;26663;59.302;18.082;2023-08-01T10:06:53;1.70;;;1.60;;
17650;SDS011;26663;59.302;18.082;2023-08-01T10:09:58;1.55;;;1.55;;
17650;SDS011;26663;59.302;18.082;2023-08-01T10:13:03;1.58;;;1.58;;
17650;SDS011;26663;59.302;18.082;2023-08-01T10:16:07;1.40;;;1.40;;
17650;SDS011;26663;59.302;18.082;2023-08-01T10:19:12;2.03;;;1.92;;
17650;SDS011;26663;59.302;18.082;2023-08-01T10:22:16;1.60;;;1.50;;
17650;SDS011;26663;59.302;18.082;2023-08-01T10:25:21;1.52;;;1.48;;
17650;SDS011;26663;59.302;18.082;2023-08-01T10:28:32;1.75;;;1.65;;
17650;SDS011;26663;59.302;18.082;2023-08-01T10:31:36;1.50;;;1.50;;
17650;SDS011;26663;59.302;18.082;2023-08-01T10:34:51;1.50;;;1.50;;
17650;SDS011;26663;59.302;18.082;2023-08-01T10:38:03;1.60;;;1.50;;
17650;SDS011;26663;59.302;18.082;2023-08-01T10:41:08;3.05;;;1.90;;
17650;SDS011;26663;59.302;18.082;2023-08-01T10:44:21;1.20;;;1.20;;
17650;SDS011;26663;59.302;18.082;2023-08-01T10:47:25;1.55;;;1.55;;
17650;SDS011;26663;59.302;18.082;2023-08-01T10:50:31;1.70;;;1.60;;
17650;SDS011;26663;59.302;18.082;2023-08-01T10:53:38;2.08;;;2.08;;
17650;SDS011;26663;59.302;18.082;2023-08-01T10:56:44;1.75;;;1.73;;
17650;SDS011;26663;59.302;18.082;2023-08-01T10:59:48;1.55;;;1.42;;
17650;SDS011;26663;59.302;18.082;2023-08-01T11:02:52;1.40;;;1.40;;
17650;SDS011;26663;59.302;18.082;2023-08-01T11:05:59;1.40;;;1.40;;
17650;SDS011;26663;59.302;18.082;2023-08-01T11:09:06;1.40;;;1.40;;
17650;SDS011;26663;59.302;18.082;2023-08-01T11:12:18;1.42;;;1.42;;
17650;SDS011;26663;59.302;18.082;2023-08-01T11:15:22;1.48;;;1.48;;
17650;SDS011;26663;59.302;18.082;2023-08-01T11:18:26;1.55;;;1.45;;
17650;SDS011;26663;59.302;18.082;2023-08-01T11:21:31;1.40;;;1.40;;
17650;SDS011;26663;59.302;18.082;2023-08-01T11:24:38;1.75;;;1.65;;
17650;SDS011;26663;59.302;18.082;2023-08-01T11:27:42;1.30;;;1.30;;
17650;SDS011;26663;59.302;18.082;2023-08-01T11:30:45;1.35;;;1.35;;
17650;SDS011;26663;59.302;18.082;2023-08-01T11:33:55;1.80;;;1.70;;
17650;SDS011;26663;59.302;18.082;2023-08-01T11:37:01;1.52;;;1.48;;
17650;SDS011;26663;59.302;18.082;2023-08-01T11:40:06;1.70;;;1.60;;
17650;SDS011;26663;59.302;18.082;2023-08-01T11:43:11;3.00;;;1.50;;
17650;SDS011;26663;59.302;18.082;2023-08-01T11:46:15;1.33;;;1.33;;
17650;SDS011;26663;59.302;18.082;2023-08-01T11:49:19;1.88;;;1.65;;
17650;SDS011;26663;59.302;18.082;2023-08-01T11:52:25;1.55;;;1.30;;
17650;SDS011;26663;59.302;18.082;2023-08-01T11:55:29;1.48;;;1.48;;
17650;SDS011;26663;59.302;18.082;2023-08-01T11:58:34;1.40;;;1.40;;
17650;SDS011;26663;59.302;18.082;2023-08-01T12:01:38;1.40;;;1.40;;
17650;SDS011;26663;59.302;18.082;2023-08-01T12:04:45;1.63;;;1.55;;
17650;SDS011;26663;59.302;18.082;2023-08-01T12:07:51;1.90;;;1.80;;
17650;SDS011;26663;59.302;18.082;2023-08-01T12:10:55;3.42;;;1.65;;
17650;SDS011;26663;59.302;18.082;2023-08-01T12:14:02;1.60;;;1.60;;
17650;SDS011;26663;59.302;18.082;2023-08-01T12:17:07;1.58;;;1.50;;
17650;SDS011;26663;59.302;18.082;2023-08-01T12:20:11;2.67;;;1.80;;
17650;SDS011;26663;59.302;18.082;2023-08-01T12:23:16;2.15;;;1.80;;
17650;SDS011;26663;59.302;18.082;2023-08-01T12:26:20;1.88;;;1.65;;
17650;SDS011;26663;59.302;18.082;2023-08-01T12:29:24;3.70;;;2.17;;
17650;SDS011;26663;59.302;18.082;2023-08-01T12:32:28;1.85;;;1.75;;
17650;SDS011;26663;59.302;18.082;2023-08-01T12:35:32;11.43;;;1.60;;
17650;SDS011;26663;59.302;18.082;2023-08-01T12:38:38;2.40;;;2.20;;
17650;SDS011;26663;59.302;18.082;2023-08-01T12:41:42;2.00;;;1.90;;
17650;SDS011;26663;59.302;18.082;2023-08-01T12:44:45;1.75;;;1.65;;
17650;SDS011;26663;59.302;18.082;2023-08-01T12:47:49;2.03;;;1.92;;
17650;SDS011;26663;59.302;18.082;2023-08-01T12:50:53;1.75;;;1.65;;
17650;SDS011;26663;59.302;18.082;2023-08-01T12:53:59;1.83;;;1.70;;
17650;SDS011;26663;59.302;18.082;2023-08-01T12:57:03;2.28;;;1.33;;
17650;SDS011;26663;59.302;18.082;2023-08-01T13:00:07;1.65;;;1.60;;
17650;SDS011;26663;59.302;18.082;2023-08-01T13:03:12;2.90;;;1.60;;
17650;SDS011;26663;59.302;18.082;2023-08-01T13:06:16;1.58;;;1.58;;
17650;SDS011;26663;59.302;18.082;2023-08-01T13:09:22;3.10;;;1.50;;
17650;SDS011;26663;59.302;18.082;2023-08-01T13:12:26;1.63;;;1.55;;
17650;SDS011;26663;59.302;18.082;2023-08-01T13:15:30;1.70;;;1.70;;
17650;SDS011;26663;59.302;18.082;2023-08-01T13:18:34;3.00;;;1.88;;
17650;SDS011;26663;59.302;18.082;2023-08-01T13:21:38;2.88;;;1.75;;
17650;SDS011;26663;59.302;18.082;2023-08-01T13:24:43;2.08;;;1.77;;
17650;SDS011;26663;59.302;18.082;2023-08-01T13:27:48;1.60;;;1.50;;
17650;SDS011;26663;59.302;18.082;2023-08-01T13:30:52;2.08;;;1.60;;
17650;SDS011;26663;59.302;18.082;2023-08-01T13:33:56;1.30;;;1.30;;
17650;SDS011;26663;59.302;18.082;2023-08-01T13:37:00;1.23;;;1.23;;
17650;SDS011;26663;59.302;18.082;2023-08-01T13:40:06;1.40;;;1.40;;
17650;SDS011;26663;59.302;18.082;2023-08-01T13:43:12;1.40;;;1.40;;
17650;SDS011;26663;59.302;18.082;2023-08-01T13:46:17;1.75;;;1.48;;
17650;SDS011;26663;59.302;18.082;2023-08-01T13:49:41;1.63;;;1.63;;
17650;SDS011;26663;59.302;18.082;2023-08-01T13:52:45;1.42;;;1.38;;
17650;SDS011;26663;59.302;18.082;2023-08-01T13:55:50;1.70;;;1.60;;
17650;SDS011;26663;59.302;18.082;2023-08-01T13:58:54;1.45;;;1.40;;
17650;SDS011;26663;59.302;18.082;2023-08-01T14:01:58;2.00;;;1.90;;
17650;SDS011;26663;59.302;18.082;2023-08-01T14:05:02;2.53;;;1.63;;
17650;SDS011;26663;59.302;18.082;2023-08-01T14:08:06;1.70;;;1.70;;
17650;SDS011;26663;59.302;18.082;2023-08-01T14:11:11;1.45;;;1.45;;
17650;SDS011;26663;59.302;18.082;2023-08-01T14:14:15;2.00;;;1.65;;
17650;SDS011;26663;59.302;18.082;2023-08-01T14:17:19;1.35;;;1.35;;
17650;SDS011;26663;59.302;18.082;2023-08-01T14:20:23;1.73;;;1.63;;
17650;SDS011;26663;59.302;18.082;2023-08-01T14:23:27;1.50;;;1.50;;
17650;SDS011;26663;59.302;18.082;2023-08-01T14:26:32;1.50;;;1.30;;
17650;SDS011;26663;59.302;18.082;2023-08-01T14:29:36;1.50;;;1.50;;
17650;SDS011;26663;59.302;18.082;2023-08-01T14:32:40;1.40;;;1.33;;
17650;SDS011;26663;59.302;18.082;2023-08-01T14:35:44;1.63;;;1.63;;
17650;SDS011;26663;59.302;18.082;2023-08-01T14:38:48;1.77;;;1.58;;
17650;SDS011;26663;59.302;18.082;2023-08-01T14:42:02;1.85;;;1.75;;
17650;SDS011;26663;59.302;18.082;2023-08-01T14:45:07;1.75;;;1.40;;
17650;SDS011;26663;59.302;18.082;2023-08-01T14:48:11;1.80;;;1.70;;
17650;SDS011;26663;59.302;18.082;2023-08-01T14:51:15;1.70;;;1.60;;
17650;SDS011;26663;59.302;18.082;2023-08-01T14:54:19;1.60;;;1.60;;
17650;SDS011;26663;59.302;18.082;2023-08-01T14:57:42;1.70;;;1.60;;
17650;SDS011;26663;59.302;18.082;2023-08-01T15:00:47;1.90;;;1.80;;
17650;SDS011;26663;59.302;18.082;2023-08-01T15:03:51;1.65;;;1.58;;
17650;SDS011;26663;59.302;18.082;2023-08-01T15:06:55;1.60;;;1.55;;
17650;SDS011;26663;59.302;18.082;2023-08-01T15:09:59;4.10;;;2.00;;
17650;SDS011;26663;59.302;18.082;2023-08-01T15:13:04;2.08;;;1.73;;
17650;SDS011;26663;59.302;18.082;2023-08-01T15:16:09;2.58;;;1.70;;
17650;SDS011;26663;59.302;18.082;2023-08-01T15:19:14;2.70;;;1.60;;
17650;SDS011;26663;59.302;18.082;2023-08-01T15:22:18;1.70;;;1.60;;
17650;SDS011;26663;59.302;18.082;2023-08-01T15:25:22;1.60;;;1.50;;
17650;SDS011;26663;59.302;18.082;2023-08-01T15:28:27;1.75;;;1.70;;
17650;SDS011;26663;59.302;18.082;2023-08-01T15:31:31;1.77;;;1.63;;
17650;SDS011;26663;59.302;18.082;2023-08-01T15:34:36;1.50;;;1.50;;
17650;SDS011;26663;59.302;18.082;2023-08-01T15:37:40;1.58;;;1.58;;
17650;SDS011;26663;59.302;18.082;2023-08-01T15:40:44;2.38;;;1.50;;
17650;SDS011;26663;59.302;18.082;2023-08-01T15:43:50;1.40;;;1.30;;
17650;SDS011;26663;59.302;18.082;2023-08-01T15:46:54;1.55;;;1.45;;
17650;SDS011;26663;59.302;18.082;2023-08-01T15:49:58;1.70;;;1.70;;
17650;SDS011;26663;59.302;18.082;2023-08-01T15:53:02;1.60;;;1.50;;
17650;SDS011;26663;59.302;18.082;2023-08-01T15:56:06;1.67;;;1.60;;
17650;SDS011;26663;59.302;18.082;2023-08-01T15:59:15;2.88;;;1.70;;
17650;SDS011;26663;59.302;18.082;2023-08-01T16:02:19;1.30;;;1.30;;
17650;SDS011;26663;59.302;18.082;2023-08-01T16:05:22;1.38;;;1.38;;
17650;SDS011;26663;59.302;18.082;2023-08-01T16:08:26;1.30;;;1.20;;
17650;SDS011;26663;59.302;18.082;2023-08-01T16:11:31;2.95;;;1.77;;
17650;SDS011;26663;59.302;18.082;2023-08-01T16:14:36;1.50;;;1.50;;
17650;SDS011;26663;59.302;18.082;2023-08-01T16:17:42;1.75;;;1.35;;
17650;SDS011;26663;59.302;18.082;2023-08-01T16:20:46;1.50;;;1.50;;
17650;SDS011;26663;59.302;18.082;2023-08-01T16:23:50;1.27;;;1.27;;
17650;SDS011;26663;59.302;18.082;2023-08-01T16:26:54;3.10;;;1.63;;
17650;SDS011;26663;59.302;18.082;2023-08-01T16:29:59;2.08;;;1.27;;
17650;SDS011;26663;59.302;18.082;2023-08-01T16:33:03;1.38;;;1.38;;
17650;SDS011;26663;59.302;18.082;2023-08-01T16:36:07;1.75;;;1.20;;
17650;SDS011;26663;59.302;18.082;2023-08-01T16:39:11;1.50;;;1.50;;
17650;SDS011;26663;59.302;18.082;2023-08-01T16:42:15;1.60;;;1.50;;
17650;SDS011;26663;59.302;18.082;2023-08-01T16:45:20;2.15;;;1.60;;
17650;SDS011;26663;59.302;18.082;2023-08-01T16:48:24;4.72;;;1.73;;
17650;SDS011;26663;59.302;18.082;2023-08-01T16:51:28;1.90;;;1.80;;
17650;SDS011;26663;59.302;18.082;2023-08-01T16:54:32;1.70;;;1.60;;
17650;SDS011;26663;59.302;18.082;2023-08-01T16:57:35;1.50;;;1.50;;
17650;SDS011;26663;59.302;18.082;2023-08-01T17:00:41;1.30;;;1.30;;
17650;SDS011;26663;59.302;18.082;2023-08-01T17:03:45;3.25;;;1.40;;
17650;SDS011;26663;59.302;18.082;2023-08-01T17:06:49;3.10;;;1.58;;
17650;SDS011;26663;59.302;18.082;2023-08-01T17:09:53;1.40;;;1.40;;
17650;SDS011;26663;59.302;18.082;2023-08-01T17:12:58;1.50;;;1.50;;
17650;SDS011;26663;59.302;18.082;2023-08-01T17:16:05;1.33;;;1.30;;
17650;SDS011;26663;59.302;18.082;2023-08-01T17:19:09;1.88;;;1.67;;
17650;SDS011;26663;59.302;18.082;2023-08-01T17:22:15;1.60;;;1.50;;
17650;SDS011;26663;59.302;18.082;2023-08-01T17:25:19;1.30;;;1.30;;
17650;SDS011;26663;59.302;18.082;2023-08-01T17:28:23;1.50;;;1.50;;
17650;SDS011;26663;59.302;18.082;2023-08-01T17:31:28;1.30;;;1.30;;
17650;SDS011;26663;59.302;18.082;2023-08-01T17:34:34;1.40;;;1.30;;
17650;SDS011;26663;59.302;18.082;2023-08-01T17:37:38;1.40;;;1.30;;
17650;SDS011;26663;59.302;18.082;2023-08-01T17:40:43;1.40;;;1.40;;
17650;SDS011;26663;59.302;18.082;2023-08-01T17:43:47;2.55;;;1.17;;
17650;SDS011;26663;59.302;18.082;2023-08-01T17:46:53;1.00;;;1.00;;
17650;SDS011;26663;59.302;18.082;2023-08-01T17:49:57;1.40;;;1.30;;
17650;SDS011;26663;59.302;18.082;2023-08-01T17:53:01;1.20;;;1.20;;
17650;SDS011;26663;59.302;18.082;2023-08-01T17:56:05;1.10;;;1.10;;
17650;SDS011;26663;59.302;18.082;2023-08-01T17:59:09;1.95;;;1.27;;
17650;SDS011;26663;59.302;18.082;2023-08-01T18:02:16;1.17;;;1.10;;
17650;SDS011;26663;59.302;18.082;2023-08-01T18:05:20;1.55;;;1.25;;
17650;SDS011;26663;59.302;18.082;2023-08-01T18:08:24;1.30;;;1.30;;
17650;SDS011;26663;59.302;18.082;2023-08-01T18:11:27;1.63;;;1.25;;
17650;SDS011;26663;59.302;18.082;2023-08-01T18:14:32;1.10;;;1.10;;